sensor_id;sensor_type;location;lat;lon;timestamp;P1;durP1;ratioP1;P2;durP2;ratioP2
3939;SDS011;1984;48.312;9.244;2023-08-01T00:00:10;3.17;;;2.60;;
3939;SDS011;1984;48.312;9.244;2023-08-01T00:02:36;3.37;;;2.70;;
3939;SDS011;1984;48.312;9.244;2023-08-01T00:05:02;8.03;;;2.80;;
3939;SDS011;1984;48.312;9.244;2023-08-01T00:07:28;4.27;;;2.90;;
3939;SDS011;1984;48.312;9.244;2023-08-01T00:09:53;4.97;;;2.90;;
3939;SDS011;1984;48.312;9.244;2023-08-01T00:12:19;4.67;;;3.30;;
3939;SDS011;1984;48.312;9.244;2023-08-01T00:14:44;4.70;;;2.60;;
3939;SDS011;1984;48.312;9.244;2023-08-01T00:17:10;7.60;;;3.13;;
3939;SDS011;1984;48.312;9.244;2023-08-01T00:19:35;3.50;;;2.80;;
3939;SDS011;1984;48.312;9.244;2023-08-01T00:22:01;5.73;;;2.87;;
3939;SDS011;1984;48.312;9.244;2023-08-01T00:24:27;3.50;;;2.97;;
3939;SDS011;1984;48.312;9.244;2023-08-01T00:26:52;3.67;;;2.70;;
3939;SDS011;1984;48.312;9.244;2023-08-01T00:29:20;3.87;;;2.77;;
3939;SDS011;1984;48.312;9.244;2023-08-01T00:31:46;2.80;;;2.60;;
3939;SDS011;1984;48.312;9.244;2023-08-01T00:34:12;4.20;;;2.60;;
3939;SDS011;1984;48.312;9.244;2023-08-01T00:36:37;3.40;;;2.50;;
3939;SDS011;1984;48.312;9.244;2023-08-01T00:39:03;4.53;;;2.40;;
3939;SDS011;1984;48.312;9.244;2023-08-01T00:41:28;7.80;;;2.80;;
3939;SDS011;1984;48.312;9.244;2023-08-01T00:43:54;8.33;;;2.80;;
3939;SDS011;1984;48.312;9.244;2023-08-01T00:46:19;10.87;;;3.03;;
3939;SDS011;1984;48.312;9.244;2023-08-01T00:48:45;6.13;;;3.10;;
3939;SDS011;1984;48.312;9.244;2023-08-01T00:51:11;6.83;;;2.87;;
3939;SDS011;1984;48.312;9.244;2023-08-01T00:53:37;3.03;;;2.40;;
3939;SDS011;1984;48.312;9.244;2023-08-01T00:56:04;5.00;;;2.90;;
3939;SDS011;1984;48.312;9.244;2023-08-01T00:58:29;3.80;;;2.47;;
3939;SDS011;1984;48.312;9.244;2023-08-01T01:00:55;3.90;;;2.43;;
3939;SDS011;1984;48.312;9.244;2023-08-01T01:03:21;3.57;;;2.47;;
3939;SDS011;1984;48.312;9.244;2023-08-01T01:06:06;5.07;;;2.53;;
3939;SDS011;1984;48.312;9.244;2023-08-01T01:08:44;3.93;;;2.40;;
3939;SDS011;1984;48.312;9.244;2023-08-01T01:11:10;4.73;;;2.90;;
3939;SDS011;1984;48.312;9.244;2023-08-01T01:13:36;3.87;;;2.60;;
3939;SDS011;1984;48.312;9.244;2023-08-01T01:16:01;5.00;;;2.87;;
3939;SDS011;1984;48.312;9.244;2023-08-01T01:18:28;7.83;;;3.27;;
3939;SDS011;1984;48.312;9.244;2023-08-01T01:20:53;4.60;;;2.83;;
3939;SDS011;1984;48.312;9.244;2023-08-01T01:23:19;3.93;;;2.60;;
3939;SDS011;1984;48.312;9.244;2023-08-01T01:25:46;7.03;;;3.23;;
3939;SDS011;1984;48.312;9.244;2023-08-01T01:28:16;3.33;;;2.93;;
3939;SDS011;1984;48.312;9.244;2023-08-01T01:30:41;3.00;;;2.50;;
3939;SDS011;1984;48.312;9.244;2023-08-01T01:33:08;5.00;;;2.70;;
3939;SDS011;1984;48.312;9.244;2023-08-01T01:35:34;3.57;;;2.50;;
3939;SDS011;1984;48.312;9.244;2023-08-01T01:38:01;6.37;;;2.80;;
3939;SDS011;1984;48.312;9.244;2023-08-01T01:40:30;4.20;;;2.90;;
3939;SDS011;1984;48.312;9.244;2023-08-01T01:42:56;5.17;;;2.50;;
3939;SDS011;1984;48.312;9.244;2023-08-01T01:45:22;6.10;;;2.80;;
3939;SDS011;1984;48.312;9.244;2023-08-01T01:47:48;2.90;;;2.10;;
3939;SDS011;1984;48.312;9.244;2023-08-01T01:50:13;7.03;;;2.73;;
3939;SDS011;1984;48.312;9.244;2023-08-01T01:52:39;9.50;;;2.70;;
3939;SDS011;1984;48.312;9.244;2023-08-01T01:55:04;3.30;;;2.87;;
3939;SDS011;1984;48.312;9.244;2023-08-01T01:57:30;3.90;;;2.60;;
3939;SDS011;1984;48.312;9.244;2023-08-01T01:59:55;3.37;;;2.37;;
3939;SDS011;1984;48.312;9.244;2023-08-01T02:02:21;6.07;;;2.90;;
3939;SDS011;1984;48.312;9.244;2023-08-01T02:04:47;4.80;;;3.00;;
3939;SDS011;1984;48.312;9.244;2023-08-01T02:07:14;5.70;;;3.03;;
3939;SDS011;1984;48.312;9.244;2023-08-01T02:09:40;3.53;;;3.00;;
3939;SDS011;1984;48.312;9.244;2023-08-01T02:12:06;3.07;;;2.67;;
3939;SDS011;1984;48.312;9.244;2023-08-01T02:14:34;3.40;;;2.87;;
3939;SDS011;1984;48.312;9.244;2023-08-01T02:17:00;3.70;;;2.63;;
3939;SDS011;1984;48.312;9.244;2023-08-01T02:19:26;4.30;;;2.70;;
3939;SDS011;1984;48.312;9.244;2023-08-01T02:21:51;5.63;;;2.53;;
3939;SDS011;1984;48.312;9.244;2023-08-01T02:24:18;4.90;;;3.07;;
3939;SDS011;1984;48.312;9.244;2023-08-01T02:26:43;4.37;;;3.13;;
3939;SDS011;1984;48.312;9.244;2023-08-01T02:29:09;4.23;;;3.20;;
3939;SDS011;1984;48.312;9.244;2023-08-01T02:31:34;5.80;;;3.20;;
3939;SDS011;1984;48.312;9.244;2023-08-01T02:34:00;7.90;;;3.17;;
3939;SDS011;1984;48.312;9.244;2023-08-01T02:36:26;3.30;;;2.70;;
3939;SDS011;1984;48.312;9.244;2023-08-01T02:38:51;5.50;;;3.20;;
3939;SDS011;1984;48.312;9.244;2023-08-01T02:41:17;6.07;;;3.00;;
3939;SDS011;1984;48.312;9.244;2023-08-01T02:43:42;4.60;;;2.93;;
3939;SDS011;1984;48.312;9.244;2023-08-01T02:46:08;5.50;;;3.27;;
3939;SDS011;1984;48.312;9.244;2023-08-01T02:48:33;5.13;;;3.47;;
3939;SDS011;1984;48.312;9.244;2023-08-01T02:51:00;5.00;;;3.33;;
3939;SDS011;1984;48.312;9.244;2023-08-01T02:53:26;4.07;;;3.37;;
3939;SDS011;1984;48.312;9.244;2023-08-01T02:55:51;3.43;;;3.13;;
3939;SDS011;1984;48.312;9.244;2023-08-01T02:58:17;3.10;;;2.47;;
3939;SDS011;1984;48.312;9.244;2023-08-01T03:00:42;6.30;;;3.20;;
3939;SDS011;1984;48.312;9.244;2023-08-01T03:03:08;4.27;;;3.17;;
3939;SDS011;1984;48.312;9.244;2023-08-01T03:05:37;3.47;;;2.80;;
3939;SDS011;1984;48.312;9.244;2023-08-01T03:08:03;4.00;;;2.93;;
3939;SDS011;1984;48.312;9.244;2023-08-01T03:10:29;5.97;;;3.40;;
3939;SDS011;1984;48.312;9.244;2023-08-01T03:12:54;6.67;;;3.37;;
3939;SDS011;1984;48.312;9.244;2023-08-01T03:15:20;5.57;;;3.87;;
3939;SDS011;1984;48.312;9.244;2023-08-01T03:17:46;4.40;;;3.17;;
3939;SDS011;1984;48.312;9.244;2023-08-01T03:20:11;6.77;;;3.20;;
3939;SDS011;1984;48.312;9.244;2023-08-01T03:22:38;3.53;;;3.23;;
3939;SDS011;1984;48.312;9.244;2023-08-01T03:25:05;4.10;;;2.83;;
3939;SDS011;1984;48.312;9.244;2023-08-01T03:27:32;3.73;;;3.00;;
3939;SDS011;1984;48.312;9.244;2023-08-01T03:29:58;5.67;;;3.43;;
3939;SDS011;1984;48.312;9.244;2023-08-01T03:32:24;8.60;;;3.50;;
3939;SDS011;1984;48.312;9.244;2023-08-01T03:34:49;5.57;;;3.00;;
3939;SDS011;1984;48.312;9.244;2023-08-01T03:37:15;3.90;;;2.60;;
3939;SDS011;1984;48.312;9.244;2023-08-01T03:39:41;9.93;;;3.17;;
3939;SDS011;1984;48.312;9.244;2023-08-01T03:42:07;5.13;;;2.33;;
3939;SDS011;1984;48.312;9.244;2023-08-01T03:44:33;3.70;;;2.47;;
3939;SDS011;1984;48.312;9.244;2023-08-01T03:46:58;3.47;;;2.73;;
3939;SDS011;1984;48.312;9.244;2023-08-01T03:49:24;4.37;;;2.63;;
3939;SDS011;1984;48.312;9.244;2023-08-01T03:51:49;3.50;;;2.40;;
3939;SDS011;1984;48.312;9.244;2023-08-01T03:54:15;2.93;;;2.57;;
3939;SDS011;1984;48.312;9.244;2023-08-01T03:56:41;5.63;;;2.60;;
3939;SDS011;1984;48.312;9.244;2023-08-01T03:59:08;5.20;;;3.10;;
3939;SDS011;1984;48.312;9.244;2023-08-01T04:01:35;4.60;;;2.70;;
3939;SDS011;1984;48.312;9.244;2023-08-01T04:04:00;6.63;;;2.77;;
3939;SDS011;1984;48.312;9.244;2023-08-01T04:06:26;3.73;;;2.20;;
3939;SDS011;1984;48.312;9.244;2023-08-01T04:08:51;5.20;;;2.80;;
3939;SDS011;1984;48.312;9.244;2023-08-01T04:11:17;6.17;;;2.80;;
3939;SDS011;1984;48.312;9.244;2023-08-01T04:13:43;3.73;;;3.10;;
3939;SDS011;1984;48.312;9.244;2023-08-01T04:16:08;4.83;;;2.90;;
3939;SDS011;1984;48.312;9.244;2023-08-01T04:18:34;3.13;;;2.67;;
3939;SDS011;1984;48.312;9.244;2023-08-01T04:20:59;3.27;;;2.57;;
3939;SDS011;1984;48.312;9.244;2023-08-01T04:23:25;5.43;;;3.37;;
3939;SDS011;1984;48.312;9.244;2023-08-01T04:25:50;7.53;;;3.03;;
3939;SDS011;1984;48.312;9.244;2023-08-01T04:28:16;4.17;;;2.70;;
3939;SDS011;1984;48.312;9.244;2023-08-01T04:30:41;5.67;;;3.30;;
3939;SDS011;1984;48.312;9.244;2023-08-01T04:33:07;5.07;;;2.50;;
3939;SDS011;1984;48.312;9.244;2023-08-01T04:35:32;5.00;;;2.83;;
3939;SDS011;1984;48.312;9.244;2023-08-01T04:37:58;4.63;;;3.00;;
3939;SDS011;1984;48.312;9.244;2023-08-01T04:40:23;5.23;;;3.10;;
3939;SDS011;1984;48.312;9.244;2023-08-01T04:42:49;6.17;;;3.40;;
3939;SDS011;1984;48.312;9.244;2023-08-01T04:45:14;5.00;;;3.40;;
3939;SDS011;1984;48.312;9.244;2023-08-01T04:47:40;4.80;;;3.37;;
3939;SDS011;1984;48.312;9.244;2023-08-01T04:50:06;5.10;;;2.57;;
3939;SDS011;1984;48.312;9.244;2023-08-01T04:52:31;5.50;;;3.47;;
3939;SDS011;1984;48.312;9.244;2023-08-01T04:54:57;6.23;;;3.27;;
3939;SDS011;1984;48.312;9.244;2023-08-01T04:57:22;5.67;;;3.40;;
3939;SDS011;1984;48.312;9.244;2023-08-01T04:59:48;4.27;;;3.40;;
3939;SDS011;1984;48.312;9.244;2023-08-01T05:02:13;9.80;;;4.47;;
3939;SDS011;1984;48.312;9.244;2023-08-01T05:04:39;6.10;;;3.20;;
3939;SDS011;1984;48.312;9.244;2023-08-01T05:07:04;7.37;;;3.90;;
3939;SDS011;1984;48.312;9.244;2023-08-01T05:09:31;6.77;;;4.23;;
3939;SDS011;1984;48.312;9.244;2023-08-01T05:11:57;8.07;;;3.50;;
3939;SDS011;1984;48.312;9.244;2023-08-01T05:14:22;6.87;;;3.30;;
3939;SDS011;1984;48.312;9.244;2023-08-01T05:16:48;8.10;;;3.37;;
3939;SDS011;1984;48.312;9.244;2023-08-01T05:19:13;4.50;;;2.93;;
3939;SDS011;1984;48.312;9.244;2023-08-01T05:21:39;6.13;;;2.80;;
3939;SDS011;1984;48.312;9.244;2023-08-01T05:24:04;6.40;;;3.27;;
3939;SDS011;1984;48.312;9.244;2023-08-01T05:26:30;7.10;;;2.70;;
3939;SDS011;1984;48.312;9.244;2023-08-01T05:28:55;3.80;;;2.80;;
3939;SDS011;1984;48.312;9.244;2023-08-01T05:31:21;4.83;;;2.93;;
3939;SDS011;1984;48.312;9.244;2023-08-01T05:33:46;5.20;;;2.90;;
3939;SDS011;1984;48.312;9.244;2023-08-01T05:36:12;3.20;;;2.83;;
3939;SDS011;1984;48.312;9.244;2023-08-01T05:38:37;7.17;;;3.33;;
3939;SDS011;1984;48.312;9.244;2023-08-01T05:41:03;4.70;;;2.73;;
3939;SDS011;1984;48.312;9.244;2023-08-01T05:43:28;5.50;;;2.93;;
3939;SDS011;1984;48.312;9.244;2023-08-01T05:45:54;3.70;;;1.93;;
3939;SDS011;1984;48.312;9.244;2023-08-01T05:48:20;2.97;;;2.30;;
3939;SDS011;1984;48.312;9.244;2023-08-01T05:50:46;3.43;;;2.40;;
3939;SDS011;1984;48.312;9.244;2023-08-01T05:53:11;4.20;;;3.10;;
3939;SDS011;1984;48.312;9.244;2023-08-01T05:55:37;3.20;;;2.60;;
3939;SDS011;1984;48.312;9.244;2023-08-01T05:58:02;5.33;;;2.97;;
3939;SDS011;1984;48.312;9.244;2023-08-01T06:00:28;4.40;;;2.73;;
3939;SDS011;1984;48.312;9.244;2023-08-01T06:02:55;4.50;;;3.03;;
3939;SDS011;1984;48.312;9.244;2023-08-01T06:05:21;8.70;;;3.50;;
3939;SDS011;1984;48.312;9.244;2023-08-01T06:07:46;5.87;;;3.67;;
3939;SDS011;1984;48.312;9.244;2023-08-01T06:10:12;5.30;;;3.27;;
3939;SDS011;1984;48.312;9.244;2023-08-01T06:12:37;3.30;;;2.70;;
3939;SDS011;1984;48.312;9.244;2023-08-01T06:15:03;5.90;;;3.33;;
3939;SDS011;1984;48.312;9.244;2023-08-01T06:17:29;5.40;;;3.43;;
3939;SDS011;1984;48.312;9.244;2023-08-01T06:19:55;14.33;;;3.17;;
3939;SDS011;1984;48.312;9.244;2023-08-01T06:22:20;4.90;;;3.30;;
3939;SDS011;1984;48.312;9.244;2023-08-01T06:24:46;6.40;;;3.93;;
3939;SDS011;1984;48.312;9.244;2023-08-01T06:27:11;5.33;;;3.33;;
3939;SDS011;1984;48.312;9.244;2023-08-01T06:29:37;6.73;;;3.70;;
3939;SDS011;1984;48.312;9.244;2023-08-01T06:32:03;5.23;;;3.50;;
3939;SDS011;1984;48.312;9.244;2023-08-01T06:34:29;5.20;;;3.30;;
3939;SDS011;1984;48.312;9.244;2023-08-01T06:36:54;4.70;;;3.53;;
3939;SDS011;1984;48.312;9.244;2023-08-01T06:39:20;4.83;;;3.50;;
3939;SDS011;1984;48.312;9.244;2023-08-01T06:41:45;5.20;;;3.70;;
3939;SDS011;1984;48.312;9.244;2023-08-01T06:44:11;7.60;;;3.33;;
3939;SDS011;1984;48.312;9.244;2023-08-01T06:46:37;5.23;;;3.60;;
3939;SDS011;1984;48.312;9.244;2023-08-01T06:49:02;6.90;;;4.20;;
3939;SDS011;1984;48.312;9.244;2023-08-01T06:51:28;4.33;;;3.20;;
3939;SDS011;1984;48.312;9.244;2023-08-01T06:53:54;6.00;;;3.60;;
3939;SDS011;1984;48.312;9.244;2023-08-01T06:56:19;3.87;;;2.83;;
3939;SDS011;1984;48.312;9.244;2023-08-01T06:58:45;3.43;;;2.70;;
3939;SDS011;1984;48.312;9.244;2023-08-01T07:01:11;3.13;;;2.70;;
3939;SDS011;1984;48.312;9.244;2023-08-01T07:03:36;5.33;;;3.63;;
3939;SDS011;1984;48.312;9.244;2023-08-01T07:06:02;4.20;;;3.10;;
3939;SDS011;1984;48.312;9.244;2023-08-01T07:08:28;5.10;;;3.40;;
3939;SDS011;1984;48.312;9.244;2023-08-01T07:10:53;5.43;;;3.27;;
3939;SDS011;1984;48.312;9.244;2023-08-01T07:13:19;6.33;;;3.00;;
3939;SDS011;1984;48.312;9.244;2023-08-01T07:15:44;4.43;;;2.93;;
3939;SDS011;1984;48.312;9.244;2023-08-01T07:18:10;7.57;;;3.07;;
3939;SDS011;1984;48.312;9.244;2023-08-01T07:20:35;8.23;;;3.73;;
3939;SDS011;1984;48.312;9.244;2023-08-01T07:23:01;3.80;;;3.03;;
3939;SDS011;1984;48.312;9.244;2023-08-01T07:25:26;3.50;;;2.60;;
3939;SDS011;1984;48.312;9.244;2023-08-01T07:27:52;5.23;;;3.20;;
3939;SDS011;1984;48.312;9.244;2023-08-01T07:30:17;4.13;;;3.07;;
3939;SDS011;1984;48.312;9.244;2023-08-01T07:32:43;5.17;;;3.50;;
3939;SDS011;1984;48.312;9.244;2023-08-01T07:35:09;4.43;;;2.97;;
3939;SDS011;1984;48.312;9.244;2023-08-01T07:37:35;4.90;;;3.27;;
3939;SDS011;1984;48.312;9.244;2023-08-01T07:40:02;6.67;;;3.47;;
3939;SDS011;1984;48.312;9.244;2023-08-01T07:42:30;6.13;;;3.80;;
3939;SDS011;1984;48.312;9.244;2023-08-01T07:44:56;13.10;;;4.13;;
3939;SDS011;1984;48.312;9.244;2023-08-01T07:47:21;9.50;;;3.47;;
3939;SDS011;1984;48.312;9.244;2023-08-01T07:49:48;9.63;;;4.20;;
3939;SDS011;1984;48.312;9.244;2023-08-01T07:52:14;6.80;;;3.47;;
3939;SDS011;1984;48.312;9.244;2023-08-01T07:54:40;4.40;;;3.67;;
3939;SDS011;1984;48.312;9.244;2023-08-01T07:57:06;4.33;;;3.30;;
3939;SDS011;1984;48.312;9.244;2023-08-01T07:59:31;6.03;;;3.23;;
3939;SDS011;1984;48.312;9.244;2023-08-01T08:01:57;4.67;;;2.87;;
3939;SDS011;1984;48.312;9.244;2023-08-01T08:04:22;21.90;;;3.37;;
3939;SDS011;1984;48.312;9.244;2023-08-01T08:06:48;4.93;;;3.13;;
3939;SDS011;1984;48.312;9.244;2023-08-01T08:09:14;3.10;;;2.70;;
3939;SDS011;1984;48.312;9.244;2023-08-01T08:11:39;3.23;;;2.73;;
3939;SDS011;1984;48.312;9.244;2023-08-01T08:14:05;3.77;;;2.87;;
3939;SDS011;1984;48.312;9.244;2023-08-01T08:16:30;3.60;;;2.80;;
3939;SDS011;1984;48.312;9.244;2023-08-01T08:18:56;3.20;;;2.10;;
3939;SDS011;1984;48.312;9.244;2023-08-01T08:21:21;2.40;;;2.10;;
3939;SDS011;1984;48.312;9.244;2023-08-01T08:23:47;3.90;;;2.00;;
3939;SDS011;1984;48.312;9.244;2023-08-01T08:26:12;3.90;;;1.83;;
3939;SDS011;1984;48.312;9.244;2023-08-01T08:28:38;1.83;;;1.67;;
3939;SDS011;1984;48.312;9.244;2023-08-01T08:31:05;3.30;;;2.23;;
3939;SDS011;1984;48.312;9.244;2023-08-01T08:33:30;1.80;;;1.70;;
3939;SDS011;1984;48.312;9.244;2023-08-01T08:35:56;1.70;;;1.60;;
3939;SDS011;1984;48.312;9.244;2023-08-01T08:38:21;3.40;;;2.40;;
3939;SDS011;1984;48.312;9.244;2023-08-01T08:43:33;5.00;;;2.50;;
3939;SDS011;1984;48.312;9.244;2023-08-01T08:46:00;2.13;;;1.87;;
3939;SDS011;1984;48.312;9.244;2023-08-01T08:48:26;4.87;;;2.40;;
3939;SDS011;1984;48.312;9.244;2023-08-01T08:50:54;2.80;;;2.13;;
3939;SDS011;1984;48.312;9.244;2023-08-01T08:53:22;3.27;;;2.37;;
3939;SDS011;1984;48.312;9.244;2023-08-01T08:55:48;3.87;;;2.03;;
3939;SDS011;1984;48.312;9.244;2023-08-01T08:58:14;5.50;;;2.70;;
3939;SDS011;1984;48.312;9.244;2023-08-01T09:00:41;3.20;;;2.07;;
3939;SDS011;1984;48.312;9.244;2023-08-01T09:03:07;4.20;;;2.00;;
3939;SDS011;1984;48.312;9.244;2023-08-01T09:05:34;5.30;;;1.90;;
3939;SDS011;1984;48.312;9.244;2023-08-01T09:08:13;4.20;;;2.13;;
3939;SDS011;1984;48.312;9.244;2023-08-01T09:10:42;5.87;;;1.97;;
3939;SDS011;1984;48.312;9.244;2023-08-01T09:13:08;3.57;;;2.37;;
3939;SDS011;1984;48.312;9.244;2023-08-01T09:15:34;4.20;;;3.03;;
3939;SDS011;1984;48.312;9.244;2023-08-01T09:18:05;9.73;;;2.77;;
3939;SDS011;1984;48.312;9.244;2023-08-01T09:20:52;3.17;;;2.70;;
3939;SDS011;1984;48.312;9.244;2023-08-01T09:23:17;5.27;;;3.20;;
3939;SDS011;1984;48.312;9.244;2023-08-01T09:25:43;3.33;;;2.47;;
3939;SDS011;1984;48.312;9.244;2023-08-01T09:28:19;5.10;;;3.00;;
3939;SDS011;1984;48.312;9.244;2023-08-01T09:30:55;4.93;;;2.80;;
3939;SDS011;1984;48.312;9.244;2023-08-01T09:33:22;9.07;;;2.57;;
3939;SDS011;1984;48.312;9.244;2023-08-01T09:35:49;3.83;;;2.40;;
3939;SDS011;1984;48.312;9.244;2023-08-01T09:38:15;3.67;;;2.20;;
3939;SDS011;1984;48.312;9.244;2023-08-01T09:40:42;9.50;;;2.83;;
3939;SDS011;1984;48.312;9.244;2023-08-01T09:43:09;3.87;;;2.33;;
3939;SDS011;1984;48.312;9.244;2023-08-01T09:45:35;5.00;;;3.30;;
3939;SDS011;1984;48.312;9.244;2023-08-01T09:48:01;2.33;;;2.13;;
3939;SDS011;1984;48.312;9.244;2023-08-01T09:50:27;4.80;;;2.50;;
3939;SDS011;1984;48.312;9.244;2023-08-01T09:52:53;3.13;;;2.83;;
3939;SDS011;1984;48.312;9.244;2023-08-01T09:55:25;3.23;;;2.50;;
3939;SDS011;1984;48.312;9.244;2023-08-01T09:57:58;3.50;;;2.60;;
3939;SDS011;1984;48.312;9.244;2023-08-01T10:00:28;3.80;;;2.70;;
3939;SDS011;1984;48.312;9.244;2023-08-01T10:02:58;2.90;;;2.33;;
3939;SDS011;1984;48.312;9.244;2023-08-01T10:05:31;3.33;;;2.17;;
3939;SDS011;1984;48.312;9.244;2023-08-01T10:07:58;8.33;;;2.40;;
3939;SDS011;1984;48.312;9.244;2023-08-01T10:10:25;7.20;;;2.70;;
3939;SDS011;1984;48.312;9.244;2023-08-01T10:12:51;3.00;;;2.60;;
3939;SDS011;1984;48.312;9.244;2023-08-01T10:15:18;2.83;;;1.97;;
3939;SDS011;1984;48.312;9.244;2023-08-01T10:17:44;2.57;;;2.00;;
3939;SDS011;1984;48.312;9.244;2023-08-01T10:20:10;4.00;;;2.10;;
3939;SDS011;1984;48.312;9.244;2023-08-01T10:22:37;5.83;;;3.03;;
3939;SDS011;1984;48.312;9.244;2023-08-01T10:25:04;2.40;;;2.13;;
3939;SDS011;1984;48.312;9.244;2023-08-01T10:27:32;3.50;;;2.70;;
3939;SDS011;1984;48.312;9.244;2023-08-01T10:30:01;2.60;;;1.70;;
3939;SDS011;1984;48.312;9.244;2023-08-01T10:32:29;1.70;;;1.50;;
3939;SDS011;1984;48.312;9.244;2023-08-01T10:35:00;2.20;;;1.93;;
3939;SDS011;1984;48.312;9.244;2023-08-01T10:37:26;2.10;;;1.80;;
3939;SDS011;1984;48.312;9.244;2023-08-01T10:40:03;2.20;;;2.00;;
3939;SDS011;1984;48.312;9.244;2023-08-01T10:42:44;1.67;;;1.47;;
3939;SDS011;1984;48.312;9.244;2023-08-01T10:45:20;6.00;;;1.57;;
3939;SDS011;1984;48.312;9.244;2023-08-01T10:47:48;1.67;;;1.57;;
3939;SDS011;1984;48.312;9.244;2023-08-01T10:50:14;1.53;;;1.43;;
3939;SDS011;1984;48.312;9.244;2023-08-01T10:52:41;2.13;;;1.70;;
3939;SDS011;1984;48.312;9.244;2023-08-01T10:55:06;1.30;;;1.20;;
3939;SDS011;1984;48.312;9.244;2023-08-01T10:57:34;4.30;;;1.50;;
3939;SDS011;1984;48.312;9.244;2023-08-01T11:00:02;3.07;;;1.07;;
3939;SDS011;1984;48.312;9.244;2023-08-01T11:02:35;1.77;;;1.30;;
3939;SDS011;1984;48.312;9.244;2023-08-01T11:05:02;3.17;;;1.37;;
3939;SDS011;1984;48.312;9.244;2023-08-01T11:07:28;3.73;;;1.03;;
3939;SDS011;1984;48.312;9.244;2023-08-01T11:10:07;2.73;;;2.00;;
3939;SDS011;1984;48.312;9.244;2023-08-01T11:12:35;1.87;;;1.30;;
3939;SDS011;1984;48.312;9.244;2023-08-01T11:15:06;0.90;;;0.90;;
3939;SDS011;1984;48.312;9.244;2023-08-01T11:17:34;1.33;;;0.70;;
3939;SDS011;1984;48.312;9.244;2023-08-01T11:20:07;0.70;;;0.70;;
3939;SDS011;1984;48.312;9.244;2023-08-01T11:22:34;2.00;;;0.70;;
3939;SDS011;1984;48.312;9.244;2023-08-01T11:25:01;0.70;;;0.70;;
3939;SDS011;1984;48.312;9.244;2023-08-01T11:27:27;2.20;;;0.80;;
3939;SDS011;1984;48.312;9.244;2023-08-01T11:29:53;1.63;;;0.60;;
3939;SDS011;1984;48.312;9.244;2023-08-01T11:32:19;0.50;;;0.50;;
3939;SDS011;1984;48.312;9.244;2023-08-01T11:34:45;1.03;;;0.80;;
3939;SDS011;1984;48.312;9.244;2023-08-01T11:37:12;1.13;;;0.80;;
3939;SDS011;1984;48.312;9.244;2023-08-01T11:39:39;4.30;;;0.60;;
3939;SDS011;1984;48.312;9.244;2023-08-01T11:42:05;0.50;;;0.50;;
3939;SDS011;1984;48.312;9.244;2023-08-01T11:44:31;1.03;;;0.63;;
3939;SDS011;1984;48.312;9.244;2023-08-01T11:46:57;0.60;;;0.60;;
3939;SDS011;1984;48.312;9.244;2023-08-01T11:49:22;6.10;;;0.60;;
3939;SDS011;1984;48.312;9.244;2023-08-01T11:51:48;0.53;;;0.53;;
3939;SDS011;1984;48.312;9.244;2023-08-01T11:54:14;0.67;;;0.60;;
3939;SDS011;1984;48.312;9.244;2023-08-01T11:56:42;0.70;;;0.60;;
3939;SDS011;1984;48.312;9.244;2023-08-01T11:59:08;0.60;;;0.60;;
3939;SDS011;1984;48.312;9.244;2023-08-01T12:01:38;0.60;;;0.60;;
3939;SDS011;1984;48.312;9.244;2023-08-01T12:04:05;3.07;;;0.60;;
3939;SDS011;1984;48.312;9.244;2023-08-01T12:06:31;1.70;;;0.90;;
3939;SDS011;1984;48.312;9.244;2023-08-01T12:09:05;1.23;;;1.13;;
3939;SDS011;1984;48.312;9.244;2023-08-01T12:11:32;0.93;;;0.93;;
3939;SDS011;1984;48.312;9.244;2023-08-01T12:14:01;2.67;;;1.00;;
3939;SDS011;1984;48.312;9.244;2023-08-01T12:16:28;1.37;;;1.23;;
3939;SDS011;1984;48.312;9.244;2023-08-01T12:18:55;0.80;;;0.77;;
3939;SDS011;1984;48.312;9.244;2023-08-01T12:21:21;0.80;;;0.80;;
3939;SDS011;1984;48.312;9.244;2023-08-01T12:23:47;1.33;;;0.80;;
3939;SDS011;1984;48.312;9.244;2023-08-01T12:26:12;0.70;;;0.70;;
3939;SDS011;1984;48.312;9.244;2023-08-01T12:28:37;0.73;;;0.73;;
3939;SDS011;1984;48.312;9.244;2023-08-01T12:31:03;1.00;;;0.70;;
3939;SDS011;1984;48.312;9.244;2023-08-01T12:33:29;0.70;;;0.70;;
3939;SDS011;1984;48.312;9.244;2023-08-01T12:35:56;0.90;;;0.80;;
3939;SDS011;1984;48.312;9.244;2023-08-01T12:38:21;0.70;;;0.60;;
3939;SDS011;1984;48.312;9.244;2023-08-01T12:40:47;0.73;;;0.73;;
3939;SDS011;1984;48.312;9.244;2023-08-01T12:43:14;1.70;;;0.60;;
3939;SDS011;1984;48.312;9.244;2023-08-01T12:45:39;0.90;;;0.90;;
3939;SDS011;1984;48.312;9.244;2023-08-01T12:48:05;0.73;;;0.73;;
3939;SDS011;1984;48.312;9.244;2023-08-01T12:50:31;0.80;;;0.80;;
3939;SDS011;1984;48.312;9.244;2023-08-01T12:52:56;6.23;;;0.80;;
3939;SDS011;1984;48.312;9.244;2023-08-01T12:55:22;0.60;;;0.60;;
3939;SDS011;1984;48.312;9.244;2023-08-01T12:57:47;0.60;;;0.60;;
3939;SDS011;1984;48.312;9.244;2023-08-01T13:00:13;0.93;;;0.87;;
3939;SDS011;1984;48.312;9.244;2023-08-01T13:02:38;0.60;;;0.60;;
3939;SDS011;1984;48.312;9.244;2023-08-01T13:05:04;1.17;;;0.90;;
3939;SDS011;1984;48.312;9.244;2023-08-01T13:07:30;4.40;;;0.90;;
3939;SDS011;1984;48.312;9.244;2023-08-01T13:09:59;0.80;;;0.70;;
3939;SDS011;1984;48.312;9.244;2023-08-01T13:12:25;1.10;;;0.70;;
3939;SDS011;1984;48.312;9.244;2023-08-01T13:14:51;0.70;;;0.70;;
3939;SDS011;1984;48.312;9.244;2023-08-01T13:17:17;0.70;;;0.70;;
3939;SDS011;1984;48.312;9.244;2023-08-01T13:19:42;1.00;;;0.90;;
3939;SDS011;1984;48.312;9.244;2023-08-01T13:22:08;2.33;;;1.10;;
3939;SDS011;1984;48.312;9.244;2023-08-01T13:24:34;1.23;;;0.77;;
3939;SDS011;1984;48.312;9.244;2023-08-01T13:26:59;0.80;;;0.80;;
3939;SDS011;1984;48.312;9.244;2023-08-01T13:29:25;0.80;;;0.80;;
3939;SDS011;1984;48.312;9.244;2023-08-01T13:31:50;0.90;;;0.77;;
3939;SDS011;1984;48.312;9.244;2023-08-01T13:34:16;0.97;;;0.90;;
3939;SDS011;1984;48.312;9.244;2023-08-01T13:36:42;1.83;;;0.80;;
3939;SDS011;1984;48.312;9.244;2023-08-01T13:39:08;0.70;;;0.70;;
3939;SDS011;1984;48.312;9.244;2023-08-01T13:41:34;1.03;;;0.80;;
3939;SDS011;1984;48.312;9.244;2023-08-01T13:44:00;0.70;;;0.70;;
3939;SDS011;1984;48.312;9.244;2023-08-01T13:46:25;4.60;;;1.00;;
3939;SDS011;1984;48.312;9.244;2023-08-01T13:48:51;1.13;;;0.90;;
3939;SDS011;1984;48.312;9.244;2023-08-01T13:51:16;2.40;;;0.90;;
3939;SDS011;1984;48.312;9.244;2023-08-01T13:53:42;0.80;;;0.80;;
3939;SDS011;1984;48.312;9.244;2023-08-01T13:56:08;2.30;;;0.90;;
3939;SDS011;1984;48.312;9.244;2023-08-01T13:58:35;0.93;;;0.80;;
3939;SDS011;1984;48.312;9.244;2023-08-01T14:01:06;0.77;;;0.70;;
3939;SDS011;1984;48.312;9.244;2023-08-01T14:03:33;1.03;;;0.93;;
3939;SDS011;1984;48.312;9.244;2023-08-01T14:08:31;1.23;;;0.90;;
3939;SDS011;1984;48.312;9.244;2023-08-01T14:10:57;1.80;;;0.93;;
3939;SDS011;1984;48.312;9.244;2023-08-01T14:13:22;1.33;;;0.83;;
3939;SDS011;1984;48.312;9.244;2023-08-01T14:15:48;0.83;;;0.83;;
3939;SDS011;1984;48.312;9.244;2023-08-01T14:18:13;0.87;;;0.80;;
3939;SDS011;1984;48.312;9.244;2023-08-01T14:20:39;1.13;;;1.00;;
3939;SDS011;1984;48.312;9.244;2023-08-01T14:23:04;1.20;;;0.80;;
3939;SDS011;1984;48.312;9.244;2023-08-01T14:25:30;1.00;;;0.90;;
3939;SDS011;1984;48.312;9.244;2023-08-01T14:27:55;0.80;;;0.80;;
3939;SDS011;1984;48.312;9.244;2023-08-01T14:30:21;1.40;;;0.73;;
3939;SDS011;1984;48.312;9.244;2023-08-01T14:32:47;1.43;;;1.00;;
3939;SDS011;1984;48.312;9.244;2023-08-01T14:35:12;0.80;;;0.80;;
3939;SDS011;1984;48.312;9.244;2023-08-01T14:37:38;1.07;;;1.00;;
3939;SDS011;1984;48.312;9.244;2023-08-01T14:40:04;2.97;;;0.90;;
3939;SDS011;1984;48.312;9.244;2023-08-01T14:42:30;1.53;;;0.80;;
3939;SDS011;1984;48.312;9.244;2023-08-01T14:44:55;1.97;;;0.90;;
3939;SDS011;1984;48.312;9.244;2023-08-01T14:47:22;0.60;;;0.60;;
3939;SDS011;1984;48.312;9.244;2023-08-01T14:49:47;1.87;;;1.13;;
3939;SDS011;1984;48.312;9.244;2023-08-01T14:52:13;0.97;;;0.80;;
3939;SDS011;1984;48.312;9.244;2023-08-01T14:54:39;0.90;;;0.70;;
3939;SDS011;1984;48.312;9.244;2023-08-01T14:57:04;2.43;;;0.80;;
3939;SDS011;1984;48.312;9.244;2023-08-01T14:59:30;1.00;;;0.90;;
3939;SDS011;1984;48.312;9.244;2023-08-01T15:01:56;0.97;;;0.63;;
3939;SDS011;1984;48.312;9.244;2023-08-01T15:04:21;1.07;;;0.97;;
3939;SDS011;1984;48.312;9.244;2023-08-01T15:06:47;0.77;;;0.77;;
3939;SDS011;1984;48.312;9.244;2023-08-01T15:09:13;0.70;;;0.70;;
3939;SDS011;1984;48.312;9.244;2023-08-01T15:11:38;2.20;;;0.80;;
3939;SDS011;1984;48.312;9.244;2023-08-01T15:14:04;0.70;;;0.70;;